sensor_id;sensor_type;location;lat;lon;timestamp;P1;durP1;ratioP1;P2;durP2;ratioP2
7336;SDS011;54510;42.016;23.098;2022-09-06T00:01:00;19.90;;;8.90;;
7336;SDS011;54510;42.016;23.098;2022-09-06T00:03:31;26.55;;;10.45;;
7336;SDS011;54510;42.016;23.098;2022-09-06T00:05:56;25.23;;;8.32;;
7336;SDS011;54510;42.016;23.098;2022-09-06T00:08:21;29.38;;;9.95;;
7336;SDS011;54510;42.016;23.098;2022-09-06T00:10:47;24.75;;;8.18;;
7336;SDS011;54510;42.016;23.098;2022-09-06T00:13:20;22.30;;;9.32;;
7336;SDS011;54510;42.016;23.098;2022-09-06T00:15:45;27.10;;;7.97;;
7336;SDS011;54510;42.016;23.098;2022-09-06T00:18:11;10.35;;;6.47;;
7336;SDS011;54510;42.016;23.098;2022-09-06T00:20:36;9.50;;;6.57;;
7336;SDS011;54510;42.016;23.098;2022-09-06T00:23:05;8.35;;;6.53;;
7336;SDS011;54510;42.016;23.098;2022-09-06T00:25:31;10.02;;;6.38;;
7336;SDS011;54510;42.016;23.098;2022-09-06T00:28:01;8.13;;;6.03;;
7336;SDS011;54510;42.016;23.098;2022-09-06T00:30:28;11.77;;;6.22;;
7336;SDS011;54510;42.016;23.098;2022-09-06T00:32:55;7.90;;;6.50;;
7336;SDS011;54510;42.016;23.098;2022-09-06T00:35:21;8.20;;;6.57;;
7336;SDS011;54510;42.016;23.098;2022-09-06T00:37:48;9.43;;;6.68;;
7336;SDS011;54510;42.016;23.098;2022-09-06T00:40:14;11.73;;;6.88;;
7336;SDS011;54510;42.016;23.098;2022-09-06T00:42:40;8.32;;;5.82;;
7336;SDS011;54510;42.016;23.098;2022-09-06T00:45:06;12.82;;;6.65;;
7336;SDS011;54510;42.016;23.098;2022-09-06T00:47:33;6.38;;;5.60;;
7336;SDS011;54510;42.016;23.098;2022-09-06T00:50:01;8.25;;;6.03;;
7336;SDS011;54510;42.016;23.098;2022-09-06T00:52:27;9.95;;;6.35;;
7336;SDS011;54510;42.016;23.098;2022-09-06T00:54:54;17.30;;;6.28;;
7336;SDS011;54510;42.016;23.098;2022-09-06T00:57:20;9.88;;;6.70;;
7336;SDS011;54510;42.016;23.098;2022-09-06T00:59:51;9.48;;;6.25;;
7336;SDS011;54510;42.016;23.098;2022-09-06T01:02:18;8.27;;;6.20;;
7336;SDS011;54510;42.016;23.098;2022-09-06T01:04:44;9.63;;;6.38;;
7336;SDS011;54510;42.016;23.098;2022-09-06T01:28:44;8.50;;;6.93;;
7336;SDS011;54510;42.016;23.098;2022-09-06T01:36:31;12.98;;;7.05;;
7336;SDS011;54510;42.016;23.098;2022-09-06T01:39:00;10.63;;;7.43;;
7336;SDS011;54510;42.016;23.098;2022-09-06T01:41:26;9.73;;;6.95;;
7336;SDS011;54510;42.016;23.098;2022-09-06T01:43:53;13.05;;;8.00;;
7336;SDS011;54510;42.016;23.098;2022-09-06T01:46:35;14.02;;;7.65;;
7336;SDS011;54510;42.016;23.098;2022-09-06T01:49:14;11.95;;;7.10;;
7336;SDS011;54510;42.016;23.098;2022-09-06T02:00:03;9.60;;;7.28;;
7336;SDS011;54510;42.016;23.098;2022-09-06T02:02:38;9.88;;;7.15;;
7336;SDS011;54510;42.016;23.098;2022-09-06T02:05:06;8.27;;;6.85;;
7336;SDS011;54510;42.016;23.098;2022-09-06T02:07:54;9.13;;;7.43;;
7336;SDS011;54510;42.016;23.098;2022-09-06T02:10:28;9.20;;;7.22;;
7336;SDS011;54510;42.016;23.098;2022-09-06T02:13:01;10.55;;;7.03;;
7336;SDS011;54510;42.016;23.098;2022-09-06T02:15:31;8.77;;;6.88;;
7336;SDS011;54510;42.016;23.098;2022-09-06T02:18:03;7.80;;;6.65;;
7336;SDS011;54510;42.016;23.098;2022-09-06T02:20:34;8.45;;;6.65;;
7336;SDS011;54510;42.016;23.098;2022-09-06T02:23:05;7.90;;;6.60;;
7336;SDS011;54510;42.016;23.098;2022-09-06T02:25:39;8.70;;;6.90;;
7336;SDS011;54510;42.016;23.098;2022-09-06T02:28:09;11.65;;;6.32;;
7336;SDS011;54510;42.016;23.098;2022-09-06T02:30:35;9.18;;;6.45;;
7336;SDS011;54510;42.016;23.098;2022-09-06T02:33:08;9.10;;;6.97;;
7336;SDS011;54510;42.016;23.098;2022-09-06T02:35:44;7.28;;;6.30;;
7336;SDS011;54510;42.016;23.098;2022-09-06T02:38:11;8.25;;;6.90;;
7336;SDS011;54510;42.016;23.098;2022-09-06T02:40:37;8.75;;;6.60;;
7336;SDS011;54510;42.016;23.098;2022-09-06T02:43:03;7.82;;;6.68;;
7336;SDS011;54510;42.016;23.098;2022-09-06T02:45:29;8.50;;;6.95;;
7336;SDS011;54510;42.016;23.098;2022-09-06T02:47:54;8.55;;;7.05;;
7336;SDS011;54510;42.016;23.098;2022-09-06T02:50:19;9.00;;;6.35;;
7336;SDS011;54510;42.016;23.098;2022-09-06T02:52:45;11.80;;;6.78;;
7336;SDS011;54510;42.016;23.098;2022-09-06T02:55:10;9.23;;;6.95;;
7336;SDS011;54510;42.016;23.098;2022-09-06T02:57:36;10.25;;;7.35;;
7336;SDS011;54510;42.016;23.098;2022-09-06T03:00:03;10.95;;;7.32;;
7336;SDS011;54510;42.016;23.098;2022-09-06T03:02:28;9.30;;;7.18;;
7336;SDS011;54510;42.016;23.098;2022-09-06T03:04:54;8.13;;;6.97;;
7336;SDS011;54510;42.016;23.098;2022-09-06T03:07:19;9.95;;;7.43;;
7336;SDS011;54510;42.016;23.098;2022-09-06T03:09:45;12.70;;;7.55;;
7336;SDS011;54510;42.016;23.098;2022-09-06T03:12:10;8.80;;;7.30;;
7336;SDS011;54510;42.016;23.098;2022-09-06T03:14:36;10.30;;;7.22;;
7336;SDS011;54510;42.016;23.098;2022-09-06T03:17:01;8.70;;;6.72;;
7336;SDS011;54510;42.016;23.098;2022-09-06T03:19:28;11.13;;;6.45;;
7336;SDS011;54510;42.016;23.098;2022-09-06T03:21:53;8.48;;;7.05;;
7336;SDS011;54510;42.016;23.098;2022-09-06T03:24:19;11.32;;;8.02;;
7336;SDS011;54510;42.016;23.098;2022-09-06T03:26:44;21.88;;;8.68;;
7336;SDS011;54510;42.016;23.098;2022-09-06T03:29:09;17.95;;;7.78;;
7336;SDS011;54510;42.016;23.098;2022-09-06T03:31:35;14.23;;;8.10;;
7336;SDS011;54510;42.016;23.098;2022-09-06T03:34:00;15.55;;;7.85;;
7336;SDS011;54510;42.016;23.098;2022-09-06T03:36:25;10.88;;;7.85;;
7336;SDS011;54510;42.016;23.098;2022-09-06T03:38:51;16.10;;;8.57;;
7336;SDS011;54510;42.016;23.098;2022-09-06T03:41:18;14.85;;;8.15;;
7336;SDS011;54510;42.016;23.098;2022-09-06T03:43:43;10.38;;;7.03;;
7336;SDS011;54510;42.016;23.098;2022-09-06T03:46:09;8.77;;;7.15;;
7336;SDS011;54510;42.016;23.098;2022-09-06T03:48:34;9.57;;;7.35;;
7336;SDS011;54510;42.016;23.098;2022-09-06T03:51:00;10.07;;;7.40;;
7336;SDS011;54510;42.016;23.098;2022-09-06T03:53:25;13.75;;;7.30;;
7336;SDS011;54510;42.016;23.098;2022-09-06T03:55:53;9.30;;;6.65;;
7336;SDS011;54510;42.016;23.098;2022-09-06T03:58:20;9.40;;;7.28;;
7336;SDS011;54510;42.016;23.098;2022-09-06T04:00:47;12.00;;;6.63;;
7336;SDS011;54510;42.016;23.098;2022-09-06T04:03:13;13.98;;;7.88;;
7336;SDS011;54510;42.016;23.098;2022-09-06T04:05:39;9.57;;;7.47;;
7336;SDS011;54510;42.016;23.098;2022-09-06T04:08:04;11.95;;;7.32;;
7336;SDS011;54510;42.016;23.098;2022-09-06T04:10:30;11.35;;;7.47;;
7336;SDS011;54510;42.016;23.098;2022-09-06T04:12:56;10.77;;;7.25;;
7336;SDS011;54510;42.016;23.098;2022-09-06T04:15:21;9.93;;;6.97;;
7336;SDS011;54510;42.016;23.098;2022-09-06T04:17:47;8.30;;;6.68;;
7336;SDS011;54510;42.016;23.098;2022-09-06T04:20:13;9.60;;;6.90;;
7336;SDS011;54510;42.016;23.098;2022-09-06T04:22:39;7.25;;;6.40;;
7336;SDS011;54510;42.016;23.098;2022-09-06T04:25:05;9.43;;;7.47;;
7336;SDS011;54510;42.016;23.098;2022-09-06T04:27:31;10.73;;;6.95;;
7336;SDS011;54510;42.016;23.098;2022-09-06T04:29:57;7.95;;;6.50;;
7336;SDS011;54510;42.016;23.098;2022-09-06T04:32:22;9.75;;;6.93;;
7336;SDS011;54510;42.016;23.098;2022-09-06T04:34:48;15.60;;;7.20;;
7336;SDS011;54510;42.016;23.098;2022-09-06T04:37:13;15.02;;;7.53;;
7336;SDS011;54510;42.016;23.098;2022-09-06T04:39:42;8.98;;;7.00;;
7336;SDS011;54510;42.016;23.098;2022-09-06T04:42:08;11.48;;;8.27;;
7336;SDS011;54510;42.016;23.098;2022-09-06T04:44:34;15.13;;;8.38;;
7336;SDS011;54510;42.016;23.098;2022-09-06T04:47:06;17.48;;;9.25;;
7336;SDS011;54510;42.016;23.098;2022-09-06T04:49:36;27.50;;;8.15;;
7336;SDS011;54510;42.016;23.098;2022-09-06T04:52:02;25.08;;;7.65;;
7336;SDS011;54510;42.016;23.098;2022-09-06T04:54:28;13.50;;;7.88;;
7336;SDS011;54510;42.016;23.098;2022-09-06T04:56:53;19.15;;;8.57;;
7336;SDS011;54510;42.016;23.098;2022-09-06T04:59:19;13.57;;;7.88;;
7336;SDS011;54510;42.016;23.098;2022-09-06T05:01:44;29.45;;;8.98;;
7336;SDS011;54510;42.016;23.098;2022-09-06T05:04:10;18.50;;;12.98;;
7336;SDS011;54510;42.016;23.098;2022-09-06T05:06:35;12.73;;;9.60;;
7336;SDS011;54510;42.016;23.098;2022-09-06T05:09:02;16.65;;;7.75;;
7336;SDS011;54510;42.016;23.098;2022-09-06T05:11:27;13.52;;;8.02;;
7336;SDS011;54510;42.016;23.098;2022-09-06T05:13:53;14.05;;;8.27;;
7336;SDS011;54510;42.016;23.098;2022-09-06T05:16:18;14.80;;;8.55;;
7336;SDS011;54510;42.016;23.098;2022-09-06T05:18:43;13.30;;;7.65;;
7336;SDS011;54510;42.016;23.098;2022-09-06T05:21:09;10.68;;;7.30;;
7336;SDS011;54510;42.016;23.098;2022-09-06T05:23:34;12.70;;;7.70;;
7336;SDS011;54510;42.016;23.098;2022-09-06T05:26:00;10.75;;;7.28;;
7336;SDS011;54510;42.016;23.098;2022-09-06T05:28:25;14.90;;;8.20;;
7336;SDS011;54510;42.016;23.098;2022-09-06T05:30:51;21.90;;;9.57;;
7336;SDS011;54510;42.016;23.098;2022-09-06T05:33:20;16.85;;;8.40;;
7336;SDS011;54510;42.016;23.098;2022-09-06T05:35:46;16.10;;;7.85;;
7336;SDS011;54510;42.016;23.098;2022-09-06T05:38:13;17.05;;;8.25;;
7336;SDS011;54510;42.016;23.098;2022-09-06T05:40:38;10.52;;;7.78;;
7336;SDS011;54510;42.016;23.098;2022-09-06T05:43:03;17.77;;;8.52;;
7336;SDS011;54510;42.016;23.098;2022-09-06T05:45:29;13.38;;;7.60;;
7336;SDS011;54510;42.016;23.098;2022-09-06T05:47:54;12.68;;;7.88;;
7336;SDS011;54510;42.016;23.098;2022-09-06T05:50:20;11.95;;;8.52;;
7336;SDS011;54510;42.016;23.098;2022-09-06T05:52:45;10.57;;;7.70;;
7336;SDS011;54510;42.016;23.098;2022-09-06T05:55:11;11.40;;;7.82;;
7336;SDS011;54510;42.016;23.098;2022-09-06T05:57:37;13.93;;;8.40;;
7336;SDS011;54510;42.016;23.098;2022-09-06T06:00:03;11.60;;;8.02;;
7336;SDS011;54510;42.016;23.098;2022-09-06T06:02:30;14.32;;;8.30;;
7336;SDS011;54510;42.016;23.098;2022-09-06T06:04:55;13.98;;;9.32;;
7336;SDS011;54510;42.016;23.098;2022-09-06T06:07:22;13.20;;;8.70;;
7336;SDS011;54510;42.016;23.098;2022-09-06T06:09:47;12.23;;;8.50;;
7336;SDS011;54510;42.016;23.098;2022-09-06T06:12:13;8.65;;;7.65;;
7336;SDS011;54510;42.016;23.098;2022-09-06T06:14:38;13.43;;;7.10;;
7336;SDS011;54510;42.016;23.098;2022-09-06T06:17:03;10.23;;;8.00;;
7336;SDS011;54510;42.016;23.098;2022-09-06T06:19:29;13.00;;;7.97;;
7336;SDS011;54510;42.016;23.098;2022-09-06T06:21:55;15.18;;;7.50;;
7336;SDS011;54510;42.016;23.098;2022-09-06T06:24:22;14.07;;;7.93;;
7336;SDS011;54510;42.016;23.098;2022-09-06T06:26:47;10.43;;;7.00;;
7336;SDS011;54510;42.016;23.098;2022-09-06T06:29:13;12.32;;;7.15;;
7336;SDS011;54510;42.016;23.098;2022-09-06T06:31:38;9.73;;;7.07;;
7336;SDS011;54510;42.016;23.098;2022-09-06T06:34:04;13.18;;;7.43;;
7336;SDS011;54510;42.016;23.098;2022-09-06T06:36:31;11.82;;;7.63;;
7336;SDS011;54510;42.016;23.098;2022-09-06T06:38:58;12.93;;;7.07;;
7336;SDS011;54510;42.016;23.098;2022-09-06T06:41:25;16.85;;;6.93;;
7336;SDS011;54510;42.016;23.098;2022-09-06T06:43:53;11.55;;;6.88;;
7336;SDS011;54510;42.016;23.098;2022-09-06T06:46:20;12.40;;;7.45;;
7336;SDS011;54510;42.016;23.098;2022-09-06T06:48:47;34.22;;;19.35;;
7336;SDS011;54510;42.016;23.098;2022-09-06T06:51:14;19.67;;;11.70;;
7336;SDS011;54510;42.016;23.098;2022-09-06T06:53:41;60.95;;;38.80;;
7336;SDS011;54510;42.016;23.098;2022-09-06T06:58:55;16.58;;;9.30;;
7336;SDS011;54510;42.016;23.098;2022-09-06T07:01:22;14.60;;;8.63;;
7336;SDS011;54510;42.016;23.098;2022-09-06T07:03:50;11.40;;;8.02;;
7336;SDS011;54510;42.016;23.098;2022-09-06T07:06:16;12.80;;;8.02;;
7336;SDS011;54510;42.016;23.098;2022-09-06T07:08:42;10.75;;;7.28;;
7336;SDS011;54510;42.016;23.098;2022-09-06T07:11:10;12.20;;;7.75;;
7336;SDS011;54510;42.016;23.098;2022-09-06T07:13:38;12.30;;;7.40;;
7336;SDS011;54510;42.016;23.098;2022-09-06T07:16:07;12.80;;;9.00;;
7336;SDS011;54510;42.016;23.098;2022-09-06T07:18:40;8.52;;;6.97;;
7336;SDS011;54510;42.016;23.098;2022-09-06T07:21:08;15.65;;;6.85;;
7336;SDS011;54510;42.016;23.098;2022-09-06T07:23:35;9.82;;;6.43;;
7336;SDS011;54510;42.016;23.098;2022-09-06T07:26:00;12.68;;;7.45;;
7336;SDS011;54510;42.016;23.098;2022-09-06T07:28:26;12.88;;;7.22;;
7336;SDS011;54510;42.016;23.098;2022-09-06T07:30:51;13.35;;;7.65;;
7336;SDS011;54510;42.016;23.098;2022-09-06T07:33:19;10.18;;;7.45;;
7336;SDS011;54510;42.016;23.098;2022-09-06T07:36:06;16.15;;;9.95;;
7336;SDS011;54510;42.016;23.098;2022-09-06T07:38:32;11.23;;;7.70;;
7336;SDS011;54510;42.016;23.098;2022-09-06T07:40:59;12.82;;;7.90;;
7336;SDS011;54510;42.016;23.098;2022-09-06T07:43:29;10.25;;;6.93;;
7336;SDS011;54510;42.016;23.098;2022-09-06T07:45:59;12.00;;;6.93;;
7336;SDS011;54510;42.016;23.098;2022-09-06T07:48:26;10.43;;;6.70;;
7336;SDS011;54510;42.016;23.098;2022-09-06T07:50:53;11.60;;;7.80;;
7336;SDS011;54510;42.016;23.098;2022-09-06T07:53:19;16.30;;;7.50;;
7336;SDS011;54510;42.016;23.098;2022-09-06T07:55:44;12.43;;;7.20;;
7336;SDS011;54510;42.016;23.098;2022-09-06T07:58:09;10.07;;;6.70;;
7336;SDS011;54510;42.016;23.098;2022-09-06T08:00:35;11.15;;;7.45;;
7336;SDS011;54510;42.016;23.098;2022-09-06T08:03:02;12.55;;;7.47;;
7336;SDS011;54510;42.016;23.098;2022-09-06T08:05:28;13.23;;;7.25;;
7336;SDS011;54510;42.016;23.098;2022-09-06T08:07:53;13.57;;;7.40;;
7336;SDS011;54510;42.016;23.098;2022-09-06T08:10:19;13.15;;;7.07;;
7336;SDS011;54510;42.016;23.098;2022-09-06T08:12:44;9.40;;;7.53;;
7336;SDS011;54510;42.016;23.098;2022-09-06T08:15:10;13.30;;;8.45;;
7336;SDS011;54510;42.016;23.098;2022-09-06T08:17:35;12.90;;;7.82;;
7336;SDS011;54510;42.016;23.098;2022-09-06T08:20:01;14.02;;;7.07;;
7336;SDS011;54510;42.016;23.098;2022-09-06T08:22:31;10.68;;;7.68;;
7336;SDS011;54510;42.016;23.098;2022-09-06T08:24:57;13.43;;;7.40;;
7336;SDS011;54510;42.016;23.098;2022-09-06T08:27:23;16.73;;;7.70;;
7336;SDS011;54510;42.016;23.098;2022-09-06T08:29:49;10.38;;;6.93;;
7336;SDS011;54510;42.016;23.098;2022-09-06T08:32:14;12.80;;;7.68;;
7336;SDS011;54510;42.016;23.098;2022-09-06T08:34:41;30.15;;;17.27;;
7336;SDS011;54510;42.016;23.098;2022-09-06T08:37:06;14.95;;;10.80;;
7336;SDS011;54510;42.016;23.098;2022-09-06T08:39:31;13.57;;;7.50;;
7336;SDS011;54510;42.016;23.098;2022-09-06T08:42:00;11.90;;;6.95;;
7336;SDS011;54510;42.016;23.098;2022-09-06T08:44:36;11.57;;;7.68;;
7336;SDS011;54510;42.016;23.098;2022-09-06T08:47:11;11.02;;;7.22;;
7336;SDS011;54510;42.016;23.098;2022-09-06T08:49:42;11.50;;;8.63;;
7336;SDS011;54510;42.016;23.098;2022-09-06T09:00:04;10.52;;;8.18;;
7336;SDS011;54510;42.016;23.098;2022-09-06T09:02:43;8.75;;;7.68;;
7336;SDS011;54510;42.016;23.098;2022-09-06T09:05:33;11.55;;;6.57;;
7336;SDS011;54510;42.016;23.098;2022-09-06T09:10:39;10.55;;;7.30;;
7336;SDS011;54510;42.016;23.098;2022-09-06T09:13:54;12.73;;;7.68;;
7336;SDS011;54510;42.016;23.098;2022-09-06T09:16:12;19.08;;;12.98;;
7336;SDS011;54510;42.016;23.098;2022-09-06T09:18:44;10.30;;;8.77;;
7336;SDS011;54510;42.016;23.098;2022-09-06T09:21:13;12.73;;;7.90;;
7336;SDS011;54510;42.016;23.098;2022-09-06T09:23:42;10.32;;;7.65;;
7336;SDS011;54510;42.016;23.098;2022-09-06T09:26:13;10.90;;;7.43;;
7336;SDS011;54510;42.016;23.098;2022-09-06T09:29:00;9.40;;;7.20;;
7336;SDS011;54510;42.016;23.098;2022-09-06T09:31:34;10.95;;;6.70;;
7336;SDS011;54510;42.016;23.098;2022-09-06T09:34:02;11.13;;;7.75;;
7336;SDS011;54510;42.016;23.098;2022-09-06T09:36:29;14.38;;;7.50;;
7336;SDS011;54510;42.016;23.098;2022-09-06T09:38:56;12.27;;;7.90;;
7336;SDS011;54510;42.016;23.098;2022-09-06T09:41:30;10.65;;;8.32;;
7336;SDS011;54510;42.016;23.098;2022-09-06T09:44:01;10.02;;;8.60;;
7336;SDS011;54510;42.016;23.098;2022-09-06T09:46:31;13.55;;;9.75;;
7336;SDS011;54510;42.016;23.098;2022-09-06T09:49:03;10.68;;;9.00;;
7336;SDS011;54510;42.016;23.098;2022-09-06T09:51:30;10.27;;;8.40;;
7336;SDS011;54510;42.016;23.098;2022-09-06T09:53:59;13.43;;;8.27;;
7336;SDS011;54510;42.016;23.098;2022-09-06T09:56:39;14.68;;;9.57;;
7336;SDS011;54510;42.016;23.098;2022-09-06T09:59:17;15.65;;;9.68;;
7336;SDS011;54510;42.016;23.098;2022-09-06T10:04:16;10.20;;;8.38;;
7336;SDS011;54510;42.016;23.098;2022-09-06T10:06:44;12.18;;;9.70;;
7336;SDS011;54510;42.016;23.098;2022-09-06T10:09:13;14.10;;;8.45;;
7336;SDS011;54510;42.016;23.098;2022-09-06T10:11:48;7.68;;;6.93;;
7336;SDS011;54510;42.016;23.098;2022-09-06T10:14:39;10.82;;;7.85;;
7336;SDS011;54510;42.016;23.098;2022-09-06T10:17:16;11.80;;;7.93;;
7336;SDS011;54510;42.016;23.098;2022-09-06T10:19:44;9.68;;;7.80;;
7336;SDS011;54510;42.016;23.098;2022-09-06T10:27:32;7.13;;;6.18;;
7336;SDS011;54510;42.016;23.098;2022-09-06T10:30:07;7.93;;;6.82;;
7336;SDS011;54510;42.016;23.098;2022-09-06T10:40:28;9.98;;;7.22;;
7336;SDS011;54510;42.016;23.098;2022-09-06T10:42:59;8.15;;;7.28;;
7336;SDS011;54510;42.016;23.098;2022-09-06T10:48:15;10.05;;;6.85;;
7336;SDS011;54510;42.016;23.098;2022-09-06T10:57:03;5.93;;;5.20;;
7336;SDS011;54510;42.016;23.098;2022-09-06T11:04:44;6.78;;;4.10;;
7336;SDS011;54510;42.016;23.098;2022-09-06T11:07:23;5.10;;;4.47;;
7336;SDS011;54510;42.016;23.098;2022-09-06T11:09:55;5.40;;;4.47;;
7336;SDS011;54510;42.016;23.098;2022-09-06T11:15:07;4.63;;;3.53;;
7336;SDS011;54510;42.016;23.098;2022-09-06T11:27:58;6.32;;;3.22;;
7336;SDS011;54510;42.016;23.098;2022-09-06T11:30:26;5.93;;;4.05;;
7336;SDS011;54510;42.016;23.098;2022-09-06T11:33:28;4.07;;;3.50;;
7336;SDS011;54510;42.016;23.098;2022-09-06T11:35:50;5.38;;;2.72;;
7336;SDS011;54510;42.016;23.098;2022-09-06T11:38:22;6.50;;;3.50;;
7336;SDS011;54510;42.016;23.098;2022-09-06T11:41:35;4.90;;;3.85;;
7336;SDS011;54510;42.016;23.098;2022-09-06T11:43:47;3.15;;;2.60;;
7336;SDS011;54510;42.016;23.098;2022-09-06T11:49:04;4.05;;;3.25;;
7336;SDS011;54510;42.016;23.098;2022-09-06T11:51:32;4.38;;;2.92;;
7336;SDS011;54510;42.016;23.098;2022-09-06T11:56:53;4.25;;;3.05;;
7336;SDS011;54510;42.016;23.098;2022-09-06T11:59:28;3.22;;;2.92;;
7336;SDS011;54510;42.016;23.098;2022-09-06T12:01:59;6.60;;;3.72;;
7336;SDS011;54510;42.016;23.098;2022-09-06T12:07:24;4.82;;;3.45;;
7336;SDS011;54510;42.016;23.098;2022-09-06T12:09:51;5.10;;;3.78;;
7336;SDS011;54510;42.016;23.098;2022-09-06T12:15:51;3.42;;;2.63;;
7336;SDS011;54510;42.016;23.098;2022-09-06T12:17:54;3.03;;;2.60;;
7336;SDS011;54510;42.016;23.098;2022-09-06T12:26:01;5.43;;;3.33;;
7336;SDS011;54510;42.016;23.098;2022-09-06T12:31:26;3.35;;;2.90;;
7336;SDS011;54510;42.016;23.098;2022-09-06T12:33:56;4.57;;;2.95;;
7336;SDS011;54510;42.016;23.098;2022-09-06T12:36:23;3.88;;;3.38;;
7336;SDS011;54510;42.016;23.098;2022-09-06T12:41:23;5.82;;;3.47;;
7336;SDS011;54510;42.016;23.098;2022-09-06T12:43:51;4.15;;;3.22;;
7336;SDS011;54510;42.016;23.098;2022-09-06T12:46:19;5.65;;;3.70;;
7336;SDS011;54510;42.016;23.098;2022-09-06T12:48:58;4.18;;;3.50;;
7336;SDS011;54510;42.016;23.098;2022-09-06T12:51:34;6.85;;;3.00;;
7336;SDS011;54510;42.016;23.098;2022-09-06T12:54:02;9.05;;;4.38;;
7336;SDS011;54510;42.016;23.098;2022-09-06T12:56:30;5.38;;;3.42;;
7336;SDS011;54510;42.016;23.098;2022-09-06T13:02:07;3.70;;;3.30;;
7336;SDS011;54510;42.016;23.098;2022-09-06T13:04:39;4.63;;;3.20;;
7336;SDS011;54510;42.016;23.098;2022-09-06T13:07:08;5.28;;;3.38;;
7336;SDS011;54510;42.016;23.098;2022-09-06T13:09:38;5.78;;;3.95;;
7336;SDS011;54510;42.016;23.098;2022-09-06T13:12:08;4.32;;;3.00;;
7336;SDS011;54510;42.016;23.098;2022-09-06T13:14:42;4.07;;;3.53;;
7336;SDS011;54510;42.016;23.098;2022-09-06T13:17:08;4.75;;;3.35;;
7336;SDS011;54510;42.016;23.098;2022-09-06T13:19:48;3.95;;;3.17;;
7336;SDS011;54510;42.016;23.098;2022-09-06T13:22:35;4.85;;;2.88;;
7336;SDS011;54510;42.016;23.098;2022-09-06T13:25:03;4.20;;;2.95;;
7336;SDS011;54510;42.016;23.098;2022-09-06T13:29:58;4.57;;;2.80;;
7336;SDS011;54510;42.016;23.098;2022-09-06T13:32:31;4.50;;;3.08;;
7336;SDS011;54510;42.016;23.098;2022-09-06T13:34:58;7.88;;;3.53;;
7336;SDS011;54510;42.016;23.098;2022-09-06T13:37:31;3.83;;;2.88;;
7336;SDS011;54510;42.016;23.098;2022-09-06T13:40:34;3.42;;;3.13;;
7336;SDS011;54510;42.016;23.098;2022-09-06T13:43:05;3.38;;;3.08;;
7336;SDS011;54510;42.016;23.098;2022-09-06T13:45:35;3.70;;;3.10;;
7336;SDS011;54510;42.016;23.098;2022-09-06T13:48:02;5.82;;;3.08;;
7336;SDS011;54510;42.016;23.098;2022-09-06T13:50:27;3.75;;;2.85;;
7336;SDS011;54510;42.016;23.098;2022-09-06T13:52:53;5.72;;;4.13;;
7336;SDS011;54510;42.016;23.098;2022-09-06T13:55:18;7.97;;;4.68;;
7336;SDS011;54510;42.016;23.098;2022-09-06T13:57:48;5.18;;;2.92;;
7336;SDS011;54510;42.016;23.098;2022-09-06T14:00:14;4.03;;;2.60;;
7336;SDS011;54510;42.016;23.098;2022-09-06T14:02:41;4.85;;;3.35;;
7336;SDS011;54510;42.016;23.098;2022-09-06T14:05:07;6.63;;;3.95;;
7336;SDS011;54510;42.016;23.098;2022-09-06T14:07:33;6.30;;;2.80;;
7336;SDS011;54510;42.016;23.098;2022-09-06T14:09:59;5.15;;;3.17;;
7336;SDS011;54510;42.016;23.098;2022-09-06T14:12:25;8.77;;;3.03;;
7336;SDS011;54510;42.016;23.098;2022-09-06T14:14:52;4.20;;;3.33;;
7336;SDS011;54510;42.016;23.098;2022-09-06T14:17:17;3.97;;;3.38;;
7336;SDS011;54510;42.016;23.098;2022-09-06T14:19:43;5.78;;;3.67;;
7336;SDS011;54510;42.016;23.098;2022-09-06T14:22:09;4.57;;;3.20;;
7336;SDS011;54510;42.016;23.098;2022-09-06T14:24:35;5.47;;;3.45;;
7336;SDS011;54510;42.016;23.098;2022-09-06T14:27:04;8.40;;;3.83;;
7336;SDS011;54510;42.016;23.098;2022-09-06T14:29:32;6.63;;;3.83;;
7336;SDS011;54510;42.016;23.098;2022-09-06T14:31:58;6.93;;;3.42;;
7336;SDS011;54510;42.016;23.098;2022-09-06T14:34:24;6.40;;;3.90;;
7336;SDS011;54510;42.016;23.098;2022-09-06T14:36:50;9.35;;;4.47;;
7336;SDS011;54510;42.016;23.098;2022-09-06T14:39:16;6.70;;;4.55;;
7336;SDS011;54510;42.016;23.098;2022-09-06T14:41:42;5.82;;;3.40;;
7336;SDS011;54510;42.016;23.098;2022-09-06T14:44:07;5.07;;;3.67;;
7336;SDS011;54510;42.016;23.098;2022-09-06T14:46:33;7.32;;;4.47;;
7336;SDS011;54510;42.016;23.098;2022-09-06T14:49:00;8.85;;;4.40;;
7336;SDS011;54510;42.016;23.098;2022-09-06T14:51:27;5.57;;;4.10;;
7336;SDS011;54510;42.016;23.098;2022-09-06T14:53:58;9.90;;;4.28;;
7336;SDS011;54510;42.016;23.098;2022-09-06T14:56:26;6.10;;;4.63;;
7336;SDS011;54510;42.016;23.098;2022-09-06T14:58:52;6.25;;;3.42;;
7336;SDS011;54510;42.016;23.098;2022-09-06T15:01:21;6.60;;;3.55;;
7336;SDS011;54510;42.016;23.098;2022-09-06T15:03:49;9.27;;;3.47;;
7336;SDS011;54510;42.016;23.098;2022-09-06T15:06:18;4.75;;;2.75;;
7336;SDS011;54510;42.016;23.098;2022-09-06T15:08:45;3.55;;;2.85;;
7336;SDS011;54510;42.016;23.098;2022-09-06T15:11:12;5.38;;;3.20;;
7336;SDS011;54510;42.016;23.098;2022-09-06T15:13:40;4.00;;;2.58;;
7336;SDS011;54510;42.016;23.098;2022-09-06T15:16:06;4.47;;;2.55;;
7336;SDS011;54510;42.016;23.098;2022-09-06T15:18:33;3.47;;;2.72;;
7336;SDS011;54510;42.016;23.098;2022-09-06T15:21:17;7.13;;;3.15;;
7336;SDS011;54510;42.016;23.098;2022-09-06T15:23:43;3.08;;;2.42;;
7336;SDS011;54510;42.016;23.098;2022-09-06T15:26:09;4.25;;;2.30;;
7336;SDS011;54510;42.016;23.098;2022-09-06T15:28:36;3.72;;;2.80;;
7336;SDS011;54510;42.016;23.098;2022-09-06T15:31:03;2.97;;;2.47;;
7336;SDS011;54510;42.016;23.098;2022-09-06T15:33:30;3.30;;;2.50;;
7336;SDS011;54510;42.016;23.098;2022-09-06T15:35:56;5.90;;;2.90;;
7336;SDS011;54510;42.016;23.098;2022-09-06T15:38:22;7.00;;;2.67;;
7336;SDS011;54510;42.016;23.098;2022-09-06T15:40:48;6.45;;;2.65;;
7336;SDS011;54510;42.016;23.098;2022-09-06T15:43:14;4.57;;;2.55;;
7336;SDS011;54510;42.016;23.098;2022-09-06T15:45:47;3.55;;;2.65;;
7336;SDS011;54510;42.016;23.098;2022-09-06T15:48:14;6.68;;;2.42;;
7336;SDS011;54510;42.016;23.098;2022-09-06T15:50:42;4.35;;;2.22;;
7336;SDS011;54510;42.016;23.098;2022-09-06T15:53:08;3.13;;;2.53;;
7336;SDS011;54510;42.016;23.098;2022-09-06T15:55:34;2.75;;;2.47;;
7336;SDS011;54510;42.016;23.098;2022-09-06T15:58:18;4.35;;;2.63;;
7336;SDS011;54510;42.016;23.098;2022-09-06T16:00:44;3.15;;;2.70;;
7336;SDS011;54510;42.016;23.098;2022-09-06T16:03:09;3.88;;;2.90;;
7336;SDS011;54510;42.016;23.098;2022-09-06T16:05:35;4.15;;;2.40;;
7336;SDS011;54510;42.016;23.098;2022-09-06T16:08:01;4.65;;;2.85;;
7336;SDS011;54510;42.016;23.098;2022-09-06T16:10:26;6.20;;;3.03;;
7336;SDS011;54510;42.016;23.098;2022-09-06T16:12:52;5.40;;;2.70;;
7336;SDS011;54510;42.016;23.098;2022-09-06T16:15:18;8.63;;;3.65;;
7336;SDS011;54510;42.016;23.098;2022-09-06T16:17:44;5.45;;;3.30;;
7336;SDS011;54510;42.016;23.098;2022-09-06T16:20:10;6.57;;;2.72;;
7336;SDS011;54510;42.016;23.098;2022-09-06T16:22:35;4.35;;;2.50;;
7336;SDS011;54510;42.016;23.098;2022-09-06T16:25:01;20.42;;;16.23;;
7336;SDS011;54510;42.016;23.098;2022-09-06T16:27:27;4.13;;;3.25;;
7336;SDS011;54510;42.016;23.098;2022-09-06T16:29:53;4.72;;;3.78;;
7336;SDS011;54510;42.016;23.098;2022-09-06T16:32:19;6.38;;;3.42;;
7336;SDS011;54510;42.016;23.098;2022-09-06T16:34:44;5.70;;;3.15;;
7336;SDS011;54510;42.016;23.098;2022-09-06T16:37:10;4.70;;;2.63;;
7336;SDS011;54510;42.016;23.098;2022-09-06T16:39:36;5.40;;;3.00;;
7336;SDS011;54510;42.016;23.098;2022-09-06T16:42:01;4.32;;;3.67;;
7336;SDS011;54510;42.016;23.098;2022-09-06T16:44:27;4.68;;;2.47;;
7336;SDS011;54510;42.016;23.098;2022-09-06T16:46:53;4.80;;;3.10;;